Time;durP1;ratioP1;P1;durP2;ratioP2;P2;SDS_P1;SDS_P2;PMS_P1;PMS_P2;Temp;Humidity;BMP_temperature;BMP_pressure;BME280_temperature;BME280_humidity;BME280_pressure;Samples;Min_cycle;Max_cycle;Signal;HPM_P1;HPM_P2
2022/11/07 00:00:54;;;;;;;30.65;24.70;;;;;;;12.71;72.18;94856.19;4160537;28;20156;-74
2022/11/07 00:02:56;;;;;;;32.90;24.90;;;;;;;12.72;71.89;94849.97;4162480;28;20045;-74
2022/11/07 00:04:57;;;;;;;34.63;25.23;;;;;;;12.69;71.76;94856.38;4162062;28;20570;-73
2022/11/07 00:06:59;;;;;;;31.88;24.05;;;;;;;12.68;71.36;94859.16;4162338;28;20513;-73
2022/11/07 00:09:01;;;;;;;32.42;24.55;;;;;;;12.67;71.54;94853.09;4161978;28;20072;-72
2022/11/07 00:11:04;;;;;;;30.55;23.10;;;;;;;12.65;71.95;94851.63;4163351;28;20059;-75
2022/11/07 00:13:05;;;;;;;32.40;24.43;;;;;;;12.58;71.45;94851.44;4159733;28;20532;-75
2022/11/07 00:15:07;;;;;;;31.23;23.30;;;;;;;12.45;72.07;94851.16;4161905;28;20587;-75
2022/11/07 00:17:09;;;;;;;30.80;23.38;;;;;;;12.40;72.25;94856.09;4162074;28;20451;-71
2022/11/07 00:19:13;;;;;;;34.33;24.58;;;;;;;12.39;72.29;94849.19;4163502;28;20152;-72
2022/11/07 00:21:14;;;;;;;31.63;25.20;;;;;;;12.45;72.28;94848.53;4163660;28;20045;-74
2022/11/07 00:23:16;;;;;;;32.70;23.95;;;;;;;12.38;71.88;94848.38;4163002;28;20653;-74
2022/11/07 00:25:18;;;;;;;34.30;23.95;;;;;;;12.24;72.30;94852.50;4161700;28;20815;-73
2022/11/07 00:27:19;;;;;;;34.22;24.75;;;;;;;11.93;72.96;94859.41;4162489;28;20177;-72
2022/11/07 00:29:21;;;;;;;29.67;24.35;;;;;;;11.78;74.03;94857.38;4161793;28;20144;-74
2022/11/07 00:31:23;;;;;;;31.73;24.83;;;;;;;11.79;74.21;94859.03;4161616;28;20724;-76
2022/11/07 00:33:25;;;;;;;36.33;26.45;;;;;;;11.73;73.85;94864.91;4161669;28;20627;-73
2022/11/07 00:35:27;;;;;;;35.10;25.52;;;;;;;11.54;74.56;94862.59;4163433;28;20065;-73
2022/11/07 00:37:29;;;;;;;33.85;25.50;;;;;;;11.29;75.54;94862.50;4163351;28;20063;-73
2022/11/07 00:39:30;;;;;;;35.72;25.88;;;;;;;11.32;76.00;94862.22;4159221;28;20057;-74
2022/11/07 00:41:32;;;;;;;32.80;27.50;;;;;;;11.44;75.77;94865.34;4161603;28;20041;-74
2022/11/07 00:43:34;;;;;;;33.33;25.67;;;;;;;11.57;75.10;94870.97;4163051;28;20484;-74
2022/11/07 00:45:35;;;;;;;35.85;26.35;;;;;;;11.70;74.83;94862.59;4159884;28;20077;-73
2022/11/07 00:47:37;;;;;;;33.47;25.63;;;;;;;11.82;74.12;94863.94;4163292;28;20127;-74
2022/11/07 00:49:39;;;;;;;32.60;26.50;;;;;;;11.91;73.86;94866.63;4163400;28;20053;-73
2022/11/07 00:51:41;;;;;;;35.78;26.80;;;;;;;11.99;73.85;94861.38;4163041;28;20388;-73
2022/11/07 00:53:43;;;;;;;35.70;26.92;;;;;;;12.04;73.18;94865.13;4161825;28;20077;-75
2022/11/07 00:55:46;;;;;;;32.38;24.40;;;;;;;12.09;73.06;94864.66;4160873;28;20572;-75
2022/11/07 00:57:48;;;;;;;32.70;25.40;;;;;;;12.16;72.60;94860.38;4161536;28;20053;-75
2022/11/07 00:59:49;;;;;;;34.85;25.58;;;;;;;12.16;72.37;94857.75;4161368;28;20060;-74
2022/11/07 01:01:51;;;;;;;32.33;24.30;;;;;;;12.20;72.30;94860.88;4161293;28;20133;-73
2022/11/07 01:06:14;;;;;;;32.58;26.15;;;;;;;12.16;71.86;94852.50;4152653;28;20107;-74
2022/11/07 01:08:16;;;;;;;31.23;24.02;;;;;;;12.16;72.51;94843.81;4161259;28;20049;-74
2022/11/07 01:10:17;;;;;;;33.05;24.80;;;;;;;12.18;72.26;94845.28;4160869;28;20681;-73
2022/11/07 01:12:19;;;;;;;37.70;25.25;;;;;;;12.20;72.35;94839.88;4163011;28;20056;-74
2022/11/07 01:14:21;;;;;;;33.55;24.27;;;;;;;12.19;72.10;94836.41;4161402;28;20053;-73
2022/11/07 01:16:24;;;;;;;36.70;25.17;;;;;;;12.16;72.04;94839.38;4159913;28;20065;-74
2022/11/07 01:18:26;;;;;;;36.83;24.95;;;;;;;12.18;71.95;94832.16;4162666;28;20052;-72
2022/11/07 01:20:27;;;;;;;33.08;24.83;;;;;;;12.20;71.96;94832.81;4162607;28;20045;-73
2022/11/07 01:22:29;;;;;;;31.92;24.77;;;;;;;12.12;71.76;94837.25;4161092;28;20152;-74
2022/11/07 01:24:31;;;;;;;33.63;25.60;;;;;;;11.95;72.88;94842.50;4162375;28;20059;-75
2022/11/07 01:26:33;;;;;;;33.67;25.50;;;;;;;11.93;73.11;94843.66;4143900;28;20631;-74
2022/11/07 01:28:35;;;;;;;33.83;25.15;;;;;;;11.95;72.92;94839.06;4150948;28;20137;-74
2022/11/07 01:30:38;;;;;;;37.60;25.40;;;;;;;11.97;72.70;94830.03;4159579;28;20547;-72
2022/11/07 01:32:40;;;;;;;37.30;26.08;;;;;;;12.01;72.50;94833.97;4161654;28;20053;-72
2022/11/07 01:34:42;;;;;;;37.63;27.25;;;;;;;12.04;72.52;94835.44;4162623;28;20149;-71
2022/11/07 01:36:44;;;;;;;31.45;25.05;;;;;;;12.08;72.60;94831.50;4160812;28;20472;-72
2022/11/07 01:38:49;;;;;;;35.40;25.85;;;;;;;12.10;72.19;94834.78;4160689;28;20188;-73
2022/11/07 01:43:45;;;;;;;40.75;27.25;;;;;;;12.04;72.26;94830.19;4102407;28;20051;-72
2022/11/07 01:45:47;;;;;;;38.15;26.73;;;;;;;12.02;72.29;94833.00;4141181;28;20428;-73
2022/11/07 01:47:49;;;;;;;35.92;25.70;;;;;;;11.92;72.10;94842.03;4160695;28;20080;-73
2022/11/07 01:49:51;;;;;;;35.65;25.88;;;;;;;11.45;72.90;94846.84;4161886;28;20368;-73
2022/11/07 01:52:03;;;;;;;35.40;27.27;;;;;;;11.24;74.29;94839.41;4160370;28;20050;-71
2022/11/07 01:54:05;;;;;;;32.97;25.98;;;;;;;11.21;74.55;94841.53;4160341;28;20087;-71
2022/11/07 01:56:11;;;;;;;33.03;26.75;;;;;;;11.20;74.21;94842.50;4159214;28;20061;-73
2022/11/07 01:58:13;;;;;;;34.10;25.77;;;;;;;11.18;74.47;94836.59;4161962;28;20056;-71
2022/11/07 02:00:17;;;;;;;35.05;26.95;;;;;;;10.77;75.55;94836.44;4158952;28;20426;-73
2022/11/07 02:02:19;;;;;;;39.50;28.05;;;;;;;10.66;76.41;94846.19;4144045;28;20154;-72
2022/11/07 02:04:23;;;;;;;37.30;26.92;;;;;;;10.71;76.88;94844.91;4144180;28;20066;-72
2022/11/07 02:06:38;;;;;;;37.05;28.23;;;;;;;10.83;76.24;94843.66;4160662;28;20060;-72
2022/11/07 02:08:41;;;;;;;36.60;28.13;;;;;;;10.98;75.80;94847.34;4144062;28;20526;-72
2022/11/07 02:10:43;;;;;;;36.30;27.87;;;;;;;11.12;75.33;94845.94;4161190;28;20181;-72
2022/11/07 02:12:45;;;;;;;37.88;29.38;;;;;;;11.23;75.33;94840.38;4158484;28;20176;-73
2022/11/07 02:14:46;;;;;;;34.80;26.50;;;;;;;11.27;74.52;94848.75;4160096;28;20448;-72
2022/11/07 02:16:48;;;;;;;36.90;26.23;;;;;;;11.18;74.63;94840.03;4160178;28;20562;-72
2022/11/07 02:18:50;;;;;;;37.33;28.10;;;;;;;11.20;74.92;94842.50;4160179;28;20065;-75
2022/11/07 02:20:52;;;;;;;35.53;28.13;;;;;;;11.25;74.98;94848.09;4160516;28;20131;-72
2022/11/07 02:22:59;;;;;;;35.70;29.08;;;;;;;11.32;74.57;94849.09;4143419;28;20053;-72
2022/11/07 02:25:04;;;;;;;38.60;28.27;;;;;;;11.35;74.26;94851.38;4160893;28;20049;-73
2022/11/07 02:27:10;;;;;;;38.33;27.88;;;;;;;11.39;74.20;94846.66;4159693;28;20155;-71
2022/11/07 02:29:12;;;;;;;36.83;26.95;;;;;;;11.44;73.85;94849.59;4160152;28;20057;-73
2022/11/07 02:31:45;;;;;;;35.78;25.73;;;;;;;11.50;73.39;94848.16;4158484;28;20140;-72
2022/11/07 02:33:46;;;;;;;39.08;25.02;;;;;;;11.52;73.20;94849.63;4161021;28;20133;-72
2022/11/07 02:35:50;;;;;;;36.33;26.25;;;;;;;11.53;72.88;94843.41;4159868;28;20115;-72
2022/11/07 02:37:52;;;;;;;34.13;26.27;;;;;;;11.57;73.08;94854.38;4159383;28;20059;-72
2022/11/07 02:39:54;;;;;;;32.55;26.50;;;;;;;11.59;73.41;94848.00;4161029;28;20053;-72
2022/11/07 02:41:57;;;;;;;34.63;25.80;;;;;;;11.63;73.11;94851.13;4161008;28;20038;-72
2022/11/07 02:44:05;;;;;;;33.38;24.52;;;;;;;11.63;72.73;94844.06;4160106;28;20084;-72
2022/11/07 02:46:09;;;;;;;35.10;25.58;;;;;;;11.61;72.90;94845.22;4157896;28;20111;-73
2022/11/07 02:48:11;;;;;;;31.23;23.92;;;;;;;11.53;72.56;94845.19;4161225;28;20053;-72
2022/11/07 02:50:14;;;;;;;34.00;24.83;;;;;;;11.43;72.61;94848.78;4159709;28;20485;-72
2022/11/07 02:52:16;;;;;;;31.40;23.92;;;;;;;11.45;73.08;94846.84;4159236;28;20045;-72
2022/11/07 02:54:18;;;;;;;29.15;21.77;;;;;;;11.48;72.98;94833.38;4160822;28;20392;-72
2022/11/07 02:56:20;;;;;;;31.85;23.63;;;;;;;11.57;72.41;94842.13;4160702;28;20107;-72
2022/11/07 02:58:22;;;;;;;27.20;21.13;;;;;;;11.61;71.85;94846.03;4160916;28;20125;-71
2022/11/07 03:00:24;;;;;;;31.65;21.58;;;;;;;11.65;71.24;94841.28;4158010;28;20230;-72
2022/11/07 03:02:26;;;;;;;29.92;22.33;;;;;;;11.64;71.34;94845.72;4159203;28;20057;-72
2022/11/07 03:04:28;;;;;;;29.25;21.05;;;;;;;11.63;71.20;94849.31;4159609;28;20067;-75
2022/11/07 03:06:30;;;;;;;27.73;19.65;;;;;;;11.63;70.66;94844.06;4151417;28;20092;-74
2022/11/07 03:08:31;;;;;;;26.45;19.23;;;;;;;11.64;70.09;94847.53;4157687;28;20053;-74
2022/11/07 03:10:33;;;;;;;24.58;17.88;;;;;;;11.65;69.91;94847.34;4145864;28;20045;-76
2022/11/07 03:12:35;;;;;;;27.20;19.80;;;;;;;11.67;69.89;94849.81;4136515;28;20123;-71
2022/11/07 03:14:37;;;;;;;26.67;18.75;;;;;;;11.69;69.97;94845.22;4142912;28;20121;-73
2022/11/07 03:16:38;;;;;;;20.83;17.52;;;;;;;11.67;69.60;94855.06;4157326;28;20055;-72
2022/11/07 03:18:40;;;;;;;23.90;17.63;;;;;;;11.66;68.76;94848.19;4159485;28;20157;-73
2022/11/07 03:20:42;;;;;;;27.17;19.23;;;;;;;11.64;68.96;94856.22;4160237;28;20153;-73
2022/11/07 03:22:46;;;;;;;25.20;16.92;;;;;;;11.61;68.58;94853.09;4160474;28;20132;-73
2022/11/07 03:24:48;;;;;;;23.30;17.33;;;;;;;11.58;68.12;94858.66;4160630;28;20060;-73
2022/11/07 03:26:49;;;;;;;22.75;16.35;;;;;;;11.51;68.03;94865.53;4160337;28;20088;-74
2022/11/07 03:28:51;;;;;;;24.40;16.65;;;;;;;11.50;67.97;94866.53;4160367;28;20115;-74
2022/11/07 03:30:53;;;;;;;20.58;16.42;;;;;;;11.42;67.58;94864.69;4157632;28;20085;-75
2022/11/07 03:32:57;;;;;;;24.40;15.85;;;;;;;11.34;68.02;94876.00;4159355;28;20054;-74
2022/11/07 03:34:59;;;;;;;21.00;14.95;;;;;;;11.31;68.09;94865.00;4158596;28;20128;-74
2022/11/07 03:37:01;;;;;;;20.35;15.60;;;;;;;11.33;67.77;94878.75;4159329;28;20053;-74
2022/11/07 03:39:03;;;;;;;23.67;16.13;;;;;;;11.33;67.90;94869.09;4159087;28;20089;-73
2022/11/07 03:41:04;;;;;;;21.00;15.40;;;;;;;11.32;67.86;94883.19;4159565;28;20601;-74
2022/11/07 03:43:06;;;;;;;18.90;16.13;;;;;;;11.29;67.95;94880.88;4158353;28;20145;-74
2022/11/07 03:45:08;;;;;;;21.35;17.33;;;;;;;11.30;68.05;94877.28;4158869;28;20091;-75
2022/11/07 03:47:10;;;;;;;23.55;18.33;;;;;;;11.30;68.06;94879.91;4160180;28;20053;-74
2022/11/07 03:49:12;;;;;;;20.70;17.10;;;;;;;11.32;68.14;94887.63;4160299;28;20084;-73
2022/11/07 03:51:14;;;;;;;24.83;17.55;;;;;;;11.28;68.10;94887.13;4158910;28;20510;-74
2022/11/07 03:53:16;;;;;;;26.65;18.88;;;;;;;11.30;68.58;94892.22;4160364;28;20480;-72
2022/11/07 03:55:25;;;;;;;23.73;18.45;;;;;;;11.26;68.93;94894.31;4160196;28;20845;-73
2022/11/07 03:57:27;;;;;;;24.88;18.98;;;;;;;11.24;68.82;94893.66;4158631;28;20053;-72
2022/11/07 03:59:29;;;;;;;28.75;18.80;;;;;;;11.24;69.34;94898.91;4156371;28;20472;-71
2022/11/07 04:01:30;;;;;;;24.42;19.40;;;;;;;11.27;69.49;94901.19;4150422;28;20077;-71
2022/11/07 04:03:32;;;;;;;34.33;21.00;;;;;;;11.27;69.60;94903.81;4158934;28;20133;-73
2022/11/07 04:05:34;;;;;;;26.15;19.95;;;;;;;11.26;69.56;94899.56;4160267;28;20111;-72
2022/11/07 04:07:36;;;;;;;30.60;22.92;;;;;;;11.29;69.72;94896.59;4161150;28;20046;-71
2022/11/07 04:09:38;;;;;;;57.70;51.75;;;;;;;11.28;69.50;94902.84;4158661;28;20056;-73
2022/11/07 04:18:48;;;;;;;23.35;17.25;;;;;;;11.36;68.94;94905.50;4149479;28;20041;-72
2022/11/07 04:20:49;;;;;;;29.77;23.83;;;;;;;11.34;68.92;94901.41;4159338;28;20046;-75
2022/11/07 04:22:51;;;;;;;34.15;28.98;;;;;;;11.33;69.22;94900.56;4144404;28;20241;-73
2022/11/07 04:24:53;;;;;;;37.92;32.33;;;;;;;11.33;69.24;94905.81;4164085;28;20538;-72
2022/11/07 04:29:18;;;;;;;29.95;23.30;;;;;;;11.34;69.07;94907.47;4160595;28;20067;-76
2022/11/07 04:31:21;;;;;;;30.40;22.23;;;;;;;11.34;68.79;94904.03;4159096;28;20156;-73
2022/11/07 04:33:22;;;;;;;25.88;20.25;;;;;;;11.34;68.52;94907.47;4159058;28;20160;-73
2022/11/07 04:35:30;;;;;;;27.10;19.67;;;;;;;11.35;69.02;94911.72;4160449;28;20045;-73
2022/11/07 04:37:31;;;;;;;49.67;39.95;;;;;;;11.36;68.84;94910.75;4141970;28;20450;-75
2022/11/07 04:39:33;;;;;;;31.23;23.23;;;;;;;11.35;69.01;94909.09;4156817;28;20068;-73
2022/11/07 04:41:35;;;;;;;26.52;19.33;;;;;;;11.38;68.43;94907.94;4159907;28;20150;-76
2022/11/07 04:43:36;;;;;;;27.50;21.48;;;;;;;11.41;68.37;94913.72;4160221;28;20093;-74
2022/11/07 04:45:38;;;;;;;27.23;20.63;;;;;;;11.43;68.42;94917.00;4161393;28;20060;-73
2022/11/07 04:47:40;;;;;;;26.80;19.48;;;;;;;11.42;68.31;94911.91;4163433;28;20399;-72
2022/11/07 04:49:42;;;;;;;21.95;17.23;;;;;;;11.41;68.20;94910.28;4162052;28;20057;-74
2022/11/07 04:51:44;;;;;;;25.63;18.67;;;;;;;11.41;68.23;94913.72;4162999;28;20045;-75
2022/11/07 04:53:45;;;;;;;24.10;18.10;;;;;;;11.36;67.93;94913.38;4163306;28;20483;-75
2022/11/07 04:55:47;;;;;;;22.73;17.67;;;;;;;11.40;68.27;94922.56;4161134;28;20577;-74
2022/11/07 04:57:49;;;;;;;22.73;19.05;;;;;;;11.40;67.74;94919.94;4162765;28;20538;-74
2022/11/07 04:59:50;;;;;;;23.10;17.50;;;;;;;11.40;67.68;94919.09;4163218;28;20053;-73
2022/11/07 05:01:52;;;;;;;27.25;18.48;;;;;;;11.36;67.15;94926.50;4161806;28;20160;-74
2022/11/07 05:03:54;;;;;;;24.88;16.95;;;;;;;11.37;67.98;94924.69;4163202;28;20054;-74
2022/11/07 05:05:56;;;;;;;26.98;18.58;;;;;;;11.38;67.81;94914.03;4163162;28;20112;-74
2022/11/07 05:07:57;;;;;;;22.52;17.63;;;;;;;11.43;67.69;94926.66;4145362;28;20045;-78
2022/11/07 05:09:59;;;;;;;24.80;18.95;;;;;;;11.45;67.60;94925.53;4157444;28;20053;-72
2022/11/07 05:12:01;;;;;;;26.60;18.27;;;;;;;11.44;67.31;94926.53;4132432;28;20200;-75
2022/11/07 05:14:03;;;;;;;23.00;17.83;;;;;;;11.44;67.65;94923.06;4163443;28;20060;-75
2022/11/07 05:16:08;;;;;;;25.25;18.83;;;;;;;11.43;67.89;94929.28;4159685;28;20057;-70
2022/11/07 05:18:10;;;;;;;25.67;17.60;;;;;;;11.44;67.73;94930.94;4162535;28;20049;-72
2022/11/07 05:20:26;;;;;;;23.02;16.45;;;;;;;11.44;67.55;94938.78;4162422;28;20573;-70
2022/11/07 05:24:54;;;;;;;23.75;17.60;;;;;;;11.46;67.71;94942.09;4162337;28;20523;-72
2022/11/07 05:26:55;;;;;;;27.13;18.58;;;;;;;11.48;67.61;94945.38;4160859;28;20061;-72
2022/11/07 05:28:57;;;;;;;26.40;19.35;;;;;;;11.48;67.96;94951.44;4162739;28;20123;-72
2022/11/07 05:31:01;;;;;;;24.73;18.52;;;;;;;11.53;67.97;94950.97;4161078;28;20056;-72
2022/11/07 05:33:03;;;;;;;;;;;;;;;11.55;68.13;94953.44;4161421;28;20199;-69
2022/11/07 05:35:05;;;;;;;28.65;19.52;;;;;;;11.57;68.30;94948.84;4162680;28;20511;-72
2022/11/07 05:37:07;;;;;;;27.05;19.25;;;;;;;11.58;68.65;94950.50;4162681;28;20136;-71
2022/11/07 05:39:09;;;;;;;27.98;19.08;;;;;;;11.62;68.24;94960.53;4161077;28;20045;-77
2022/11/07 05:41:12;;;;;;;27.13;19.20;;;;;;;11.67;68.40;94952.16;4162569;28;20144;-76
2022/11/07 05:43:14;;;;;;;26.77;18.83;;;;;;;11.71;68.15;94961.38;4160378;28;20376;-73
2022/11/07 05:45:17;;;;;;;27.60;19.20;;;;;;;11.69;68.15;94961.50;4159767;28;20081;-75
2022/11/07 05:47:19;;;;;;;22.83;19.08;;;;;;;11.72;68.36;94963.00;4161178;28;20060;-77
2022/11/07 05:49:20;;;;;;;28.98;20.00;;;;;;;11.75;68.31;94975.81;4162585;28;20072;-77
2022/11/07 05:51:22;;;;;;;30.92;19.83;;;;;;;11.78;68.38;94972.03;4160871;28;20080;-76
2022/11/07 05:53:24;;;;;;;30.70;20.80;;;;;;;11.79;68.64;94971.91;4161457;28;20135;-77
2022/11/07 05:55:26;;;;;;;28.52;19.33;;;;;;;11.83;68.39;94975.84;4160757;28;20135;-72
2022/11/07 05:57:29;;;;;;;26.92;20.80;;;;;;;11.91;68.22;94976.88;4162411;28;20474;-72
2022/11/07 05:59:31;;;;;;;27.85;20.75;;;;;;;11.97;68.07;94978.84;4162690;28;20124;-73
2022/11/07 06:01:33;;;;;;;25.95;20.10;;;;;;;12.01;68.03;94977.56;4161478;28;20622;-72
2022/11/07 06:03:34;;;;;;;30.25;21.15;;;;;;;12.04;68.23;94978.03;4163521;28;20154;-74
2022/11/07 06:05:38;;;;;;;30.15;20.40;;;;;;;12.09;68.11;94982.84;4163031;28;20057;-71
2022/11/07 06:07:39;;;;;;;30.85;22.05;;;;;;;12.13;68.17;94986.78;4161989;28;20048;-72
2022/11/07 06:09:41;;;;;;;28.40;21.90;;;;;;;12.21;67.70;94978.06;4157953;28;20088;-74
2022/11/07 06:11:43;;;;;;;35.65;21.50;;;;;;;12.26;67.93;94986.28;4157198;28;20092;-75
2022/11/07 06:13:44;;;;;;;30.63;21.27;;;;;;;12.31;67.57;94989.25;4162529;28;20103;-77
2022/11/07 06:15:46;;;;;;;28.73;20.75;;;;;;;12.38;67.85;94989.44;4161476;28;20117;-75
2022/11/07 06:17:48;;;;;;;27.40;21.00;;;;;;;12.44;68.03;94989.59;4161694;28;20130;-74
2022/11/07 06:19:50;;;;;;;29.45;20.73;;;;;;;12.52;68.22;94996.69;4163375;28;20045;-78
2022/11/07 06:21:52;;;;;;;29.70;20.70;;;;;;;12.61;68.14;94986.97;4151228;28;20145;-81
2022/11/07 06:23:54;;;;;;;32.70;21.95;;;;;;;12.68;68.20;94990.59;4157015;28;20137;-77
2022/11/07 06:25:55;;;;;;;33.50;23.13;;;;;;;12.75;68.20;94991.56;4159300;28;20128;-80
2022/11/07 06:28:02;;;;;;;33.95;22.50;;;;;;;12.87;68.90;94999.94;4162925;28;20060;-75
2022/11/07 06:30:04;;;;;;;31.25;22.25;;;;;;;12.91;68.52;94998.63;4161194;28;20425;-77
2022/11/07 06:32:06;;;;;;;32.20;23.63;;;;;;;12.96;68.16;95004.22;4161906;28;20136;-78
2022/11/07 06:34:08;;;;;;;37.88;24.42;;;;;;;12.96;68.15;94998.94;4163980;28;20088;-76
2022/11/07 06:36:11;;;;;;;30.60;22.63;;;;;;;12.78;68.74;95014.09;4163768;28;20053;-76
2022/11/07 06:38:14;;;;;;;35.70;24.63;;;;;;;12.54;70.30;95012.25;4165123;28;20057;-78
2022/11/07 06:40:16;;;;;;;42.75;24.80;;;;;;;12.50;70.78;95015.22;4148993;28;20076;-78
2022/11/07 06:42:17;;;;;;;34.10;24.40;;;;;;;12.60;70.42;95015.06;4161378;28;20747;-77
2022/11/07 06:44:19;;;;;;;34.70;25.10;;;;;;;12.75;69.94;95019.66;4160513;28;20502;-77
2022/11/07 06:46:22;;;;;;;34.53;24.60;;;;;;;12.87;69.98;95019.16;4161508;28;20085;-76
2022/11/07 06:48:23;;;;;;;36.72;24.33;;;;;;;12.96;69.63;95017.34;4163847;28;20061;-79
2022/11/07 06:50:25;;;;;;;33.05;23.00;;;;;;;12.78;69.56;95025.44;4162702;28;20509;-77
2022/11/07 06:52:28;;;;;;;34.72;25.02;;;;;;;12.82;69.89;95024.13;4161429;28;20487;-75
2022/11/07 06:54:29;;;;;;;39.60;24.40;;;;;;;12.87;70.09;95023.63;4148413;28;20207;-75
2022/11/07 06:56:31;;;;;;;33.40;25.00;;;;;;;12.81;70.43;95032.97;4162085;28;20656;-77
2022/11/07 06:58:33;;;;;;;37.55;24.55;;;;;;;12.64;70.55;95039.22;4144869;28;20334;-77
2022/11/07 07:00:35;;;;;;;36.55;24.92;;;;;;;12.68;70.97;95032.66;4161791;28;20124;-77
2022/11/07 07:02:37;;;;;;;38.08;25.13;;;;;;;12.78;70.80;95033.31;4162205;28;20057;-76
2022/11/07 07:04:58;;;;;;;34.67;25.05;;;;;;;12.89;70.31;95030.34;4162044;28;20141;-75
2022/11/07 07:07:00;;;;;;;37.58;26.08;;;;;;;12.93;70.25;95041.38;4162280;28;20100;-74
2022/11/07 07:09:02;;;;;;;37.13;25.75;;;;;;;12.92;69.64;95029.19;4162675;28;20059;-76
2022/11/07 07:11:05;;;;;;;35.65;24.52;;;;;;;12.87;70.28;95023.63;4162352;28;20153;-77
2022/11/07 07:13:07;;;;;;;33.20;25.65;;;;;;;12.87;70.38;95032.31;4161032;28;20495;-76
2022/11/07 07:15:09;;;;;;;38.60;27.52;;;;;;;12.91;70.50;95038.06;4159175;28;20053;-77
2022/11/07 07:17:11;;;;;;;39.38;25.73;;;;;;;12.89;70.61;95035.59;4161453;28;20439;-78
2022/11/07 07:19:13;;;;;;;38.80;26.00;;;;;;;12.97;70.06;95034.78;4159782;28;20140;-75
2022/11/07 07:21:15;;;;;;;38.47;26.52;;;;;;;13.08;69.81;95034.44;4161084;28;20148;-75
2022/11/07 07:23:17;;;;;;;37.58;25.90;;;;;;;13.19;69.50;95041.16;4160802;28;20148;-75
2022/11/07 07:25:19;;;;;;;46.30;25.58;;;;;;;13.14;69.87;95040.00;4160531;28;20048;-76
2022/11/07 07:27:21;;;;;;;37.42;25.52;;;;;;;13.08;70.00;95037.06;4161555;28;20475;-77
2022/11/07 07:29:23;;;;;;;44.42;27.63;;;;;;;12.94;70.38;95037.72;4160169;28;20140;-77
2022/11/07 07:31:29;;;;;;;46.15;26.27;;;;;;;12.90;70.91;95039.03;4159932;28;20057;-76
2022/11/07 07:33:31;;;;;;;39.95;26.73;;;;;;;13.04;71.09;95037.56;4161140;28;20046;-76
2022/11/07 07:35:33;;;;;;;41.35;28.05;;;;;;;13.21;70.37;95038.38;4160910;28;20053;-75
2022/11/07 07:37:34;;;;;;;39.47;27.95;;;;;;;13.37;69.74;95038.38;4160585;28;20522;-76
2022/11/07 07:39:36;;;;;;;42.25;26.55;;;;;;;13.49;69.29;95034.41;4160583;28;20660;-75
2022/11/07 07:41:38;;;;;;;44.58;28.48;;;;;;;13.57;68.84;95032.72;4159442;28;20077;-74
2022/11/07 07:43:41;;;;;;;40.47;25.98;;;;;;;13.68;68.60;95042.88;4159270;28;20512;-77
2022/11/07 07:45:42;;;;;;;33.90;23.95;;;;;;;13.72;68.05;95041.56;4161814;28;20049;-77
2022/11/07 07:47:44;;;;;;;39.58;25.67;;;;;;;13.59;67.98;95041.28;4164677;28;20160;-75
2022/11/07 07:49:46;;;;;;;40.05;26.02;;;;;;;13.51;68.59;95031.59;4161504;28;20056;-76
2022/11/07 07:51:48;;;;;;;38.58;24.98;;;;;;;13.55;68.48;95040.81;4160701;28;20046;-75
2022/11/07 07:53:50;;;;;;;35.90;23.92;;;;;;;13.62;68.49;95041.75;4160046;28;20038;-76
2022/11/07 07:55:58;;;;;;;43.72;25.73;;;;;;;13.78;67.85;95032.97;4160193;28;20396;-75
2022/11/07 07:58:00;;;;;;;41.63;24.92;;;;;;;13.90;67.68;95031.63;4161036;28;20099;-75
2022/11/07 08:00:02;;;;;;;37.83;25.35;;;;;;;14.05;67.62;95031.72;4158881;28;20088;-75
2022/11/07 08:02:04;;;;;;;40.55;25.83;;;;;;;14.18;66.93;95032.97;4160161;28;20127;-75
2022/11/07 08:04:32;;;;;;;39.47;25.25;;;;;;;14.20;66.38;95028.38;4160210;28;20114;-76
2022/11/07 08:06:36;;;;;;;35.95;25.88;;;;;;;13.95;67.04;95035.56;4157442;28;20133;-76
2022/11/07 08:08:38;;;;;;;36.75;26.13;;;;;;;13.93;67.29;95039.16;4174675;28;20564;-74
2022/11/07 08:10:40;;;;;;;41.55;26.90;;;;;;;13.84;67.78;95037.56;4174568;28;20143;-75
2022/11/07 08:12:44;;;;;;;;;;;;;;;13.80;67.64;95038.91;4174924;28;20041;-74
2022/11/07 08:14:45;;;;;;;35.40;24.20;;;;;;;13.80;68.80;95032.81;4157917;28;19920;-74
2022/11/07 08:16:47;;;;;;;39.45;25.73;;;;;;;13.84;68.31;95036.75;4143005;28;20064;-78
2022/11/07 08:18:49;;;;;;;43.33;24.02;;;;;;;13.89;68.18;95035.22;4160055;28;20083;-75
2022/11/07 08:20:52;;;;;;;39.55;24.85;;;;;;;13.93;68.01;95036.53;4177629;28;20466;-76
2022/11/07 08:23:05;;;;;;;39.88;26.42;;;;;;;14.07;68.33;95031.56;4159362;28;20084;-76
2022/11/07 08:25:15;;;;;;;34.30;24.20;;;;;;;14.24;67.73;95030.47;4149849;28;20115;-74
2022/11/07 08:27:16;;;;;;;40.67;24.98;;;;;;;14.34;67.51;95041.59;4161400;28;20095;-74
2022/11/07 08:29:18;;;;;;;36.53;24.05;;;;;;;14.43;67.30;95031.00;4177780;28;20057;-75
2022/11/07 08:31:20;;;;;;;36.80;23.88;;;;;;;14.54;67.10;95035.91;4176001;28;20068;-74
2022/11/07 08:33:22;;;;;;;39.75;25.02;;;;;;;14.63;66.53;95034.06;4160891;28;20045;-71
2022/11/07 08:35:24;;;;;;;37.80;24.73;;;;;;;14.66;66.35;95033.69;4176874;28;20056;-72
2022/11/07 08:37:25;;;;;;;41.05;25.15;;;;;;;14.69;66.22;95038.59;4173754;28;20049;-72
2022/11/07 08:39:27;;;;;;;35.53;24.80;;;;;;;14.78;66.60;95044.63;4163265;28;20138;-72
2022/11/07 08:41:29;;;;;;;31.52;23.52;;;;;;;14.93;66.50;95046.34;4163004;28;20053;-74
2022/11/07 08:43:31;;;;;;;35.80;24.27;;;;;;;15.06;65.73;95040.47;4163129;28;20081;-73
2022/11/07 08:45:32;;;;;;;37.67;25.77;;;;;;;15.01;65.85;95034.06;4160927;28;20064;-76
2022/11/07 08:47:34;;;;;;;42.80;24.73;;;;;;;14.86;66.01;95039.31;4161996;28;20045;-73
2022/11/07 08:49:36;;;;;;;37.58;24.58;;;;;;;14.74;67.21;95038.91;4163442;28;20125;-72
2022/11/07 08:51:37;;;;;;;43.90;26.75;;;;;;;14.81;66.68;95041.66;4163580;28;20103;-71
2022/11/07 08:53:39;;;;;;;39.85;25.10;;;;;;;14.82;66.90;95041.50;4163349;28;20135;-73
2022/11/07 08:55:47;;;;;;;37.95;25.13;;;;;;;15.01;66.44;95037.53;4162662;28;20053;-74
2022/11/07 08:58:02;;;;;;;36.17;25.85;;;;;;;15.27;65.46;95029.22;4163047;28;20128;-74
2022/11/07 09:00:09;;;;;;;39.15;22.75;;;;;;;15.49;64.46;95030.16;4160102;28;20068;-72
2022/11/07 09:02:11;;;;;;;35.67;23.45;;;;;;;15.74;63.28;95032.56;4162513;28;20349;-73
2022/11/07 09:04:33;;;;;;;36.33;22.88;;;;;;;15.97;62.25;95038.53;4163166;28;20049;-73
2022/11/07 09:06:35;;;;;;;34.80;22.33;;;;;;;15.97;62.03;95046.47;4161993;28;20057;-74
2022/11/07 09:08:37;;;;;;;33.28;22.30;;;;;;;15.72;62.78;95045.97;4164332;28;20049;-75
2022/11/07 09:10:39;;;;;;;38.50;22.55;;;;;;;15.55;62.67;95047.94;4162567;28;20509;-76
2022/11/07 09:12:48;;;;;;;37.55;20.00;;;;;;;15.46;61.71;95040.25;4164331;28;20395;-75
2022/11/07 09:14:49;;;;;;;30.27;20.35;;;;;;;15.52;61.15;95039.53;4163781;28;20211;-75
2022/11/07 09:16:51;;;;;;;30.38;20.08;;;;;;;15.76;60.98;95041.94;4162138;28;20111;-75
2022/11/07 09:18:53;;;;;;;30.52;20.38;;;;;;;16.03;60.67;95037.00;4163574;28;20050;-78
2022/11/07 09:20:57;;;;;;;33.38;19.63;;;;;;;16.19;59.00;95038.59;4163790;28;20104;-76
2022/11/07 09:23:16;;;;;;;31.10;19.50;;;;;;;16.37;58.81;95038.22;4162061;28;20065;-74
2022/11/07 09:25:18;;;;;;;30.63;19.95;;;;;;;16.32;57.91;95035.31;4150490;28;20057;-75
2022/11/07 09:27:20;;;;;;;26.58;18.23;;;;;;;16.19;58.09;95038.59;4163170;28;20096;-73
2022/11/07 09:29:22;;;;;;;27.70;18.63;;;;;;;16.11;58.37;95041.34;4161957;28;20056;-74
2022/11/07 09:31:24;;;;;;;28.08;17.58;;;;;;;16.04;58.35;95043.09;4143169;28;20073;-75
2022/11/07 09:33:26;;;;;;;29.58;18.77;;;;;;;16.02;58.38;95035.34;4152788;28;20131;-73
2022/11/07 09:35:28;;;;;;;27.73;17.33;;;;;;;15.73;58.63;95030.94;4162454;28;20115;-73
2022/11/07 09:37:30;;;;;;;23.42;17.23;;;;;;;15.67;58.98;95031.63;4161109;28;20136;-74
2022/11/07 09:39:32;;;;;;;31.20;19.65;;;;;;;15.72;59.11;95027.47;4159913;28;20057;-72
2022/11/07 09:41:51;;;;;;;28.67;19.13;;;;;;;15.85;59.09;95028.63;4162442;28;20136;-73